createdAt,value
2019-03-05T00:00:29.316Z,99127.00
2019-03-05T00:02:59.664Z,99145.00
2019-03-05T00:05:31.108Z,99125.00
2019-03-05T00:08:01.460Z,99125.00
2019-03-05T00:10:31.835Z,99124.00
2019-03-05T00:13:02.179Z,99129.00
2019-03-05T00:15:32.895Z,99136.00
2019-03-05T00:18:03.242Z,99130.00
2019-03-05T00:20:33.601Z,99135.00
2019-03-05T00:23:04.015Z,99135.00
2019-03-05T00:25:38.809Z,99135.00
2019-03-05T00:28:38.137Z,99135.00
2019-03-05T00:31:16.151Z,99134.00
2019-03-05T00:34:11.960Z,99140.00
2019-03-05T00:36:52.600Z,99140.00
2019-03-05T00:39:36.650Z,99146.00
2019-03-05T00:42:47.927Z,99148.00
2019-03-05T00:45:34.557Z,99137.00
2019-03-05T00:48:44.137Z,99147.00
2019-03-05T00:51:31.730Z,99145.00
2019-03-05T00:54:14.825Z,99149.00
2019-03-05T00:57:01.111Z,99137.00
2019-03-05T01:00:12.003Z,99146.00
2019-03-05T01:03:09.449Z,99144.00
2019-03-05T01:05:58.795Z,99147.00
2019-03-05T01:08:31.355Z,99147.00
2019-03-05T01:11:01.976Z,99138.00
2019-03-05T01:13:32.321Z,99137.00
2019-03-05T01:16:05.295Z,99132.00
2019-03-05T01:18:35.640Z,99132.00
2019-03-05T01:21:06.012Z,99142.00
2019-03-05T01:23:36.361Z,99137.00
2019-03-05T01:26:06.866Z,99148.00
2019-03-05T01:28:37.219Z,99133.00
2019-03-05T01:31:26.503Z,99137.00
2019-03-05T01:34:07.174Z,99140.00
2019-03-05T01:36:48.275Z,99146.00
2019-03-05T01:39:38.933Z,99138.00
2019-03-05T01:42:09.309Z,99143.00
2019-03-05T01:44:39.651Z,99137.00
2019-03-05T01:47:10.015Z,99145.00
2019-03-05T01:49:40.359Z,99146.00
2019-03-05T01:52:10.731Z,99148.00
2019-03-05T01:54:41.076Z,99163.00
2019-03-05T01:57:11.518Z,99156.00
2019-03-05T01:59:42.830Z,99161.00
2019-03-05T02:02:13.217Z,99160.00
2019-03-05T02:04:43.551Z,99161.00
2019-03-05T02:07:14.149Z,99173.00
2019-03-05T02:09:44.503Z,99170.00
2019-03-05T02:12:14.945Z,99162.00
2019-03-05T02:14:45.285Z,99161.00
2019-03-05T02:17:15.657Z,99156.00
2019-03-05T02:19:47.242Z,99162.00
2019-03-05T02:22:27.704Z,99165.00
2019-03-05T02:25:12.652Z,99162.00
2019-03-05T02:27:56.730Z,99164.00
2019-03-05T02:30:50.200Z,99157.00
2019-03-05T02:33:58.504Z,99166.00
2019-03-05T02:37:03.501Z,99165.00
2019-03-05T02:40:01.851Z,99151.00
2019-03-05T02:42:42.113Z,99161.00
2019-03-05T02:45:51.083Z,99161.00
2019-03-05T02:48:54.567Z,99163.00
2019-03-05T02:51:40.956Z,99153.00
2019-03-05T02:54:28.037Z,99155.00
2019-03-05T02:57:09.170Z,99157.00
2019-03-05T02:59:40.137Z,99155.00
2019-03-05T03:02:28.934Z,99163.00
2019-03-05T03:05:13.223Z,99173.00
2019-03-05T03:07:43.567Z,99168.00
2019-03-05T03:10:21.034Z,99171.00
2019-03-05T03:12:51.637Z,99164.00
2019-03-05T03:15:22.088Z,99163.00
2019-03-05T03:17:52.771Z,99162.00
2019-03-05T03:20:23.489Z,99155.00
2019-03-05T03:22:53.821Z,99177.00
2019-03-05T03:25:24.603Z,99165.00
2019-03-05T03:27:54.948Z,99163.00
2019-03-05T03:30:26.114Z,99167.00
2019-03-05T03:32:56.551Z,99162.00
2019-03-05T03:35:27.052Z,99169.00
2019-03-05T03:37:57.403Z,99171.00
2019-03-05T03:40:27.760Z,99185.00
2019-03-05T03:42:58.277Z,99179.00
2019-03-05T03:45:28.649Z,99172.00
2019-03-05T03:47:58.987Z,99177.00
2019-03-05T03:50:29.385Z,99187.00
2019-03-05T03:52:59.703Z,99181.00
2019-03-05T03:55:30.146Z,99184.00
2019-03-05T03:58:00.496Z,99196.00
2019-03-05T04:00:30.875Z,99201.00
2019-03-05T04:03:01.212Z,99207.00
2019-03-05T04:05:31.572Z,99193.00
2019-03-05T04:08:02.899Z,99206.00
2019-03-05T04:10:33.264Z,99211.00
2019-03-05T04:13:03.615Z,99203.00
2019-03-05T04:15:33.987Z,99211.00
2019-03-05T04:18:04.491Z,99200.00
2019-03-05T04:20:36.025Z,99205.00
2019-03-05T04:23:06.367Z,99207.00
2019-03-05T04:25:36.738Z,99210.00
2019-03-05T04:28:07.075Z,99199.00
2019-03-05T04:30:37.452Z,99214.00
2019-03-05T04:33:07.789Z,99213.00
2019-03-05T04:35:38.155Z,99221.00
2019-03-05T04:38:08.496Z,99217.00
2019-03-05T04:40:38.855Z,99214.00
2019-03-05T04:43:09.246Z,99234.00
2019-03-05T04:45:41.931Z,99207.00
2019-03-05T04:48:12.286Z,99228.00
2019-03-05T04:50:44.297Z,99227.00
2019-03-05T04:53:14.635Z,99227.00
2019-03-05T04:55:44.999Z,99229.00
2019-03-05T04:58:15.347Z,99220.00
2019-03-05T05:00:45.716Z,99240.00
2019-03-05T05:03:16.749Z,99240.00
2019-03-05T05:05:47.125Z,99231.00
2019-03-05T05:08:17.465Z,99238.00
2019-03-05T05:10:47.824Z,99244.00
2019-03-05T05:13:18.163Z,99249.00
2019-03-05T05:15:48.524Z,99239.00
2019-03-05T05:18:18.877Z,99239.00
2019-03-05T05:20:49.239Z,99250.00
2019-03-05T05:23:19.587Z,99249.00
2019-03-05T05:25:49.966Z,99265.00
2019-03-05T05:28:20.313Z,99251.00
2019-03-05T05:30:50.676Z,99261.00
2019-03-05T05:33:21.048Z,99269.00
2019-03-05T05:35:51.468Z,99263.00
2019-03-05T05:38:21.909Z,99282.00
2019-03-05T05:40:52.262Z,99267.00
2019-03-05T05:43:26.808Z,99274.00
2019-03-05T05:45:57.154Z,99273.00
2019-03-05T05:48:27.540Z,99267.00
2019-03-05T05:50:57.873Z,99280.00
2019-03-05T05:53:28.245Z,99281.00
2019-03-05T05:55:58.593Z,99280.00
2019-03-05T05:58:28.975Z,99287.00
2019-03-05T06:01:00.956Z,99299.00
2019-03-05T06:03:31.324Z,99297.00
2019-03-05T06:06:01.682Z,99296.00
2019-03-05T06:08:32.056Z,99291.00
2019-03-05T06:11:21.738Z,99289.00
2019-03-05T06:13:52.108Z,99310.00
2019-03-05T06:16:22.455Z,99306.00
2019-03-05T06:18:52.820Z,99308.00
2019-03-05T06:21:23.173Z,99311.00
2019-03-05T06:23:53.532Z,99313.00
2019-03-05T06:26:23.879Z,99313.00
2019-03-05T06:28:54.247Z,99323.00
2019-03-05T06:31:24.600Z,99326.00
2019-03-05T06:33:54.964Z,99322.00
2019-03-05T06:36:25.320Z,99325.00
2019-03-05T06:38:55.685Z,99330.00
2019-03-05T06:41:26.032Z,99331.00
2019-03-05T06:43:56.409Z,99317.00
2019-03-05T06:46:26.780Z,99325.00
2019-03-05T06:48:57.155Z,99329.00
2019-03-05T06:51:27.503Z,99336.00
2019-03-05T06:53:57.866Z,99344.00
2019-03-05T06:56:28.213Z,99334.00
2019-03-05T06:58:58.593Z,99352.00
2019-03-05T07:01:28.948Z,99336.00
2019-03-05T07:03:59.322Z,99360.00
2019-03-05T07:06:54.673Z,99355.00
2019-03-05T07:09:54.941Z,99363.00
2019-03-05T07:12:44.682Z,99359.00
2019-03-05T07:15:31.245Z,99364.00
2019-03-05T07:18:14.891Z,99361.00
2019-03-05T07:21:29.700Z,99365.00
2019-03-05T07:24:28.200Z,99372.00
2019-03-05T07:26:58.553Z,99380.00
2019-03-05T07:29:28.918Z,99376.00
2019-03-05T07:31:59.304Z,99389.00
2019-03-05T07:34:31.271Z,99393.00
2019-03-05T07:37:01.694Z,99393.00
2019-03-05T07:39:32.068Z,99410.00
2019-03-05T07:42:02.423Z,99410.00
2019-03-05T07:44:32.790Z,99423.00
2019-03-05T07:47:03.146Z,99426.00
2019-03-05T07:49:43.185Z,99427.00
2019-03-05T07:52:05.744Z,99423.00
2019-03-05T07:54:36.112Z,99442.00
2019-03-05T07:57:06.451Z,99429.00
2019-03-05T07:59:36.824Z,99428.00
2019-03-05T08:02:07.182Z,99430.00
2019-03-05T08:04:38.465Z,99431.00
2019-03-05T08:07:08.886Z,99422.00
2019-03-05T08:09:39.738Z,99441.00
2019-03-05T08:12:20.586Z,99439.00
2019-03-05T08:15:13.623Z,99457.00
2019-03-05T08:17:46.822Z,99447.00
2019-03-05T08:20:16.061Z,99449.00
2019-03-05T08:22:46.451Z,99465.00
2019-03-05T08:25:16.802Z,99469.00
2019-03-05T08:27:47.354Z,99472.00
2019-03-05T08:30:18.847Z,99477.00
2019-03-05T08:32:49.245Z,99475.00
2019-03-05T08:35:19.776Z,99471.00
2019-03-05T08:37:50.151Z,99482.00
2019-03-05T08:40:20.509Z,99480.00
2019-03-05T08:42:50.881Z,99470.00
2019-03-05T08:45:29.343Z,99469.00
2019-03-05T08:47:53.322Z,99480.00
2019-03-05T08:50:23.686Z,99481.00
2019-03-05T08:52:54.065Z,99497.00
2019-03-05T08:55:24.447Z,99501.00
2019-03-05T08:57:54.854Z,99514.00
2019-03-05T09:00:25.213Z,99516.00
2019-03-05T09:02:55.586Z,99497.00
2019-03-05T09:05:27.074Z,99493.00
2019-03-05T09:07:59.823Z,99512.00
2019-03-05T09:10:33.429Z,99513.00
2019-03-05T09:13:05.522Z,99545.00
2019-03-05T09:15:35.957Z,99552.00
2019-03-05T09:18:06.326Z,99533.00
2019-03-05T09:20:36.747Z,99530.00
2019-03-05T09:23:26.473Z,99531.00
2019-03-05T09:25:56.917Z,99540.00
2019-03-05T09:28:27.300Z,99548.00
2019-03-05T09:30:57.655Z,99534.00
2019-03-05T09:33:28.028Z,99529.00
2019-03-05T09:35:58.377Z,99537.00
2019-03-05T09:38:28.753Z,99576.00
2019-03-05T09:40:59.105Z,99571.00
2019-03-05T09:43:29.483Z,99589.00
2019-03-05T09:45:59.914Z,99582.00
2019-03-05T09:48:30.287Z,99590.00
2019-03-05T09:51:00.645Z,99590.00
2019-03-05T09:53:31.022Z,99595.00
2019-03-05T09:56:04.083Z,99615.00
2019-03-05T09:58:34.622Z,99608.00
2019-03-05T10:01:05.582Z,99609.00
2019-03-05T10:03:35.946Z,99628.00
2019-03-05T10:06:06.639Z,99618.00
2019-03-05T10:08:37.008Z,99621.00
2019-03-05T10:11:08.328Z,99614.00
2019-03-05T10:13:38.769Z,99620.00
2019-03-05T10:16:10.090Z,99622.00
2019-03-05T10:18:40.530Z,99617.00
2019-03-05T10:21:12.118Z,99621.00
2019-03-05T10:23:42.521Z,99616.00
2019-03-05T10:26:12.934Z,99624.00
2019-03-05T10:28:43.324Z,99608.00
2019-03-05T10:31:14.015Z,99605.00
2019-03-05T10:33:44.219Z,99594.00
2019-03-05T10:36:14.433Z,99608.00
2019-03-05T10:38:44.806Z,99607.00
2019-03-05T10:41:15.160Z,99612.00
2019-03-05T10:43:45.544Z,99629.00
2019-03-05T10:46:16.569Z,99630.00
2019-03-05T10:48:46.943Z,99637.00
2019-03-05T10:51:17.298Z,99633.00
2019-03-05T10:53:47.669Z,99625.00
2019-03-05T10:56:18.053Z,99625.00
2019-03-05T10:58:48.408Z,99633.00
2019-03-05T11:01:18.845Z,99619.00
2019-03-05T11:03:49.197Z,99634.00
2019-03-05T11:06:19.651Z,99626.00
2019-03-05T11:08:51.432Z,99628.00
2019-03-05T11:11:21.969Z,99637.00
2019-03-05T11:13:52.312Z,99631.00
2019-03-05T11:16:30.469Z,99630.00
2019-03-05T11:18:54.850Z,99627.00
2019-03-05T11:21:25.212Z,99637.00
2019-03-05T11:23:55.570Z,99626.00
2019-03-05T11:26:25.926Z,99625.00
2019-03-05T11:28:57.463Z,99634.00
2019-03-05T11:31:28.793Z,99619.00
2019-03-05T11:34:00.987Z,99624.00
2019-03-05T11:36:31.343Z,99618.00
2019-03-05T11:39:01.972Z,99615.00
2019-03-05T11:41:54.912Z,99626.00
2019-03-05T11:44:25.249Z,99622.00
2019-03-05T11:46:55.621Z,99627.00
2019-03-05T11:49:26.109Z,99632.00
2019-03-05T11:51:56.475Z,99625.00
2019-03-05T11:54:26.865Z,99626.00
2019-03-05T11:56:57.236Z,99618.00
2019-03-05T11:59:27.592Z,99626.00
2019-03-05T12:01:57.964Z,99637.00
2019-03-05T12:04:28.379Z,99628.00
2019-03-05T12:06:58.743Z,99639.00
2019-03-05T12:09:29.084Z,99650.00
2019-03-05T12:11:59.443Z,99647.00
2019-03-05T12:14:29.793Z,99637.00
2019-03-05T12:17:00.151Z,99631.00
2019-03-05T12:19:30.491Z,99632.00
2019-03-05T12:22:00.856Z,99640.00
2019-03-05T12:24:31.210Z,99640.00
2019-03-05T12:27:01.567Z,99647.00
2019-03-05T12:29:31.919Z,99647.00
2019-03-05T12:32:02.298Z,99658.00
2019-03-05T12:34:32.650Z,99642.00
2019-03-05T12:37:03.018Z,99631.00
2019-03-05T12:39:34.355Z,99636.00
2019-03-05T12:42:04.808Z,99644.00
2019-03-05T12:44:35.166Z,99645.00
2019-03-05T12:47:05.728Z,99630.00
2019-03-05T12:49:36.147Z,99639.00
2019-03-05T12:52:07.169Z,99642.00
2019-03-05T12:54:38.469Z,99649.00
2019-03-05T12:57:08.824Z,99658.00
2019-03-05T12:59:39.203Z,99664.00
2019-03-05T13:02:09.566Z,99663.00
2019-03-05T13:04:41.024Z,99672.00
2019-03-05T13:07:14.255Z,99672.00
2019-03-05T13:09:45.365Z,99677.00
2019-03-05T13:12:15.477Z,99670.00
2019-03-05T13:14:45.936Z,99682.00
2019-03-05T13:17:16.292Z,99669.00
2019-03-05T13:19:48.024Z,99662.00
2019-03-05T13:22:18.746Z,99653.00
2019-03-05T13:24:50.261Z,99661.00
2019-03-05T13:27:22.839Z,99667.00
2019-03-05T13:29:53.323Z,99673.00
2019-03-05T13:32:23.690Z,99672.00
2019-03-05T13:34:54.078Z,99682.00
2019-03-05T13:37:24.989Z,99700.00
2019-03-05T13:39:58.169Z,99711.00
2019-03-05T13:42:29.040Z,99712.00
2019-03-05T13:45:00.635Z,99711.00
2019-03-05T13:47:31.084Z,99718.00
2019-03-05T13:50:24.310Z,99719.00
2019-03-05T13:53:15.161Z,99720.00
2019-03-05T13:56:06.736Z,99725.00
2019-03-05T13:59:02.252Z,99733.00
2019-03-05T14:01:32.620Z,99725.00
2019-03-05T14:04:10.519Z,99726.00
2019-03-05T14:07:28.936Z,99720.00
2019-03-05T14:09:59.940Z,99725.00
2019-03-05T14:12:31.433Z,99718.00
2019-03-05T14:15:01.796Z,99728.00
2019-03-05T14:17:34.064Z,99727.00
2019-03-05T14:20:07.834Z,99733.00
2019-03-05T14:22:38.260Z,99738.00
2019-03-05T14:25:13.311Z,99741.00
2019-03-05T14:27:43.833Z,99745.00
2019-03-05T14:30:20.846Z,99745.00
2019-03-05T14:32:50.863Z,99739.00
2019-03-05T14:35:22.825Z,99741.00
2019-03-05T14:37:53.168Z,99749.00
2019-03-05T14:40:31.096Z,99746.00
2019-03-05T14:43:01.958Z,99746.00
2019-03-05T14:45:34.117Z,99760.00
2019-03-05T14:48:04.830Z,99759.00
2019-03-05T14:50:36.530Z,99754.00
2019-03-05T14:53:07.055Z,99761.00
2019-03-05T14:55:50.041Z,99757.00
2019-03-05T14:58:20.499Z,99761.00
2019-03-05T15:00:50.856Z,99769.00
2019-03-05T15:03:21.189Z,99777.00
2019-03-05T15:05:51.570Z,99779.00
2019-03-05T15:08:22.381Z,99790.00
2019-03-05T15:10:52.690Z,99792.00
2019-03-05T15:13:23.107Z,99791.00
2019-03-05T15:15:53.496Z,99786.00
2019-03-05T15:18:23.840Z,99803.00
2019-03-05T15:20:54.328Z,99824.00
2019-03-05T15:23:24.741Z,99841.00
2019-03-05T15:25:55.232Z,99830.00
2019-03-05T15:28:25.568Z,99836.00
2019-03-05T15:30:55.961Z,99825.00
2019-03-05T15:33:26.343Z,99835.00
2019-03-05T15:35:57.035Z,99833.00
2019-03-05T15:38:27.359Z,99823.00
2019-03-05T15:40:57.737Z,99830.00
2019-03-05T15:43:28.097Z,99824.00
2019-03-05T15:45:58.551Z,99826.00
2019-03-05T15:48:29.070Z,99826.00
2019-03-05T15:50:59.692Z,99826.00
2019-03-05T15:53:30.074Z,99832.00
2019-03-05T15:56:00.380Z,99840.00
2019-03-05T15:58:30.848Z,99840.00
2019-03-05T16:01:01.198Z,99846.00
2019-03-05T16:03:33.539Z,99848.00
2019-03-05T16:06:03.964Z,99854.00
2019-03-05T16:08:34.341Z,99858.00
2019-03-05T16:11:24.057Z,99862.00
2019-03-05T16:13:56.516Z,99870.00
2019-03-05T16:16:26.931Z,99872.00
2019-03-05T16:18:57.355Z,99896.00
2019-03-05T16:21:27.975Z,99916.00
2019-03-05T16:24:01.715Z,99942.00
2019-03-05T16:26:30.736Z,99964.00
2019-03-05T16:29:01.093Z,99971.00
2019-03-05T16:31:38.959Z,99971.00
2019-03-05T16:37:21.284Z,99966.00
2019-03-05T16:39:56.089Z,99979.00
2019-03-05T16:42:36.984Z,99980.00
2019-03-05T16:45:10.894Z,99977.00
2019-03-05T16:47:42.907Z,99949.00
2019-03-05T16:50:33.022Z,99949.00
2019-03-05T16:53:07.462Z,99965.00
2019-03-05T16:55:51.499Z,99968.00
2019-03-05T16:58:26.210Z,99962.00
2019-03-05T17:01:00.955Z,99964.00
2019-03-05T17:03:37.298Z,99976.00
2019-03-05T17:06:25.044Z,99976.00
2019-03-05T17:08:57.113Z,99982.00
2019-03-05T17:11:35.197Z,99996.00
2019-03-05T17:14:05.560Z,99993.00
2019-03-05T17:16:35.978Z,99998.00
2019-03-05T17:19:06.349Z,100015.00
2019-03-05T17:21:36.699Z,100017.00
2019-03-05T17:24:07.312Z,100029.00
2019-03-05T17:26:37.661Z,100039.00
2019-03-05T17:29:08.152Z,100036.00
2019-03-05T17:31:39.848Z,100046.00
2019-03-05T17:34:10.231Z,100059.00
2019-03-05T17:36:40.858Z,100065.00
2019-03-05T17:39:14.506Z,100078.00
2019-03-05T17:41:45.033Z,100067.00
2019-03-05T17:44:15.396Z,100069.00
2019-03-05T17:46:45.987Z,100070.00
2019-03-05T17:49:16.433Z,100080.00
2019-03-05T17:51:46.807Z,100083.00
2019-03-05T17:54:17.220Z,100095.00
2019-03-05T17:56:47.743Z,100099.00
2019-03-05T17:59:18.179Z,100102.00
2019-03-05T18:01:48.737Z,100105.00
2019-03-05T18:04:19.217Z,100098.00
2019-03-05T18:06:49.777Z,100122.00
2019-03-05T18:09:21.374Z,100107.00
2019-03-05T18:11:51.737Z,100118.00
2019-03-05T18:14:22.207Z,100125.00
2019-03-05T18:16:52.575Z,100122.00
2019-03-05T18:19:22.954Z,100130.00
2019-03-05T18:21:53.318Z,100130.00
2019-03-05T18:24:23.778Z,100141.00
2019-03-05T18:26:54.134Z,100147.00
2019-03-05T18:29:24.589Z,100151.00
2019-03-05T18:31:55.339Z,100155.00
2019-03-05T18:34:27.400Z,100154.00
2019-03-05T18:36:57.743Z,100152.00
2019-03-05T18:39:28.300Z,100164.00
2019-03-05T18:41:59.014Z,100162.00
2019-03-05T18:44:29.513Z,100164.00
2019-03-05T18:46:59.920Z,100164.00
2019-03-05T18:49:30.303Z,100169.00
2019-03-05T18:52:00.658Z,100181.00
2019-03-05T18:54:32.078Z,100182.00
2019-03-05T18:57:02.441Z,100184.00
2019-03-05T18:59:32.828Z,100187.00
2019-03-05T19:02:03.176Z,100191.00
2019-03-05T19:04:33.733Z,100193.00
2019-03-05T19:07:04.087Z,100197.00
2019-03-05T19:09:34.471Z,100209.00
2019-03-05T19:12:05.004Z,100209.00
2019-03-05T19:14:35.397Z,100212.00
2019-03-05T19:17:05.907Z,100219.00
2019-03-05T19:19:37.299Z,100221.00
2019-03-05T19:22:07.655Z,100223.00
2019-03-05T19:24:38.051Z,100229.00
2019-03-05T19:27:09.449Z,100227.00
2019-03-05T19:29:39.998Z,100235.00
2019-03-05T19:32:10.633Z,100237.00
2019-03-05T19:34:41.022Z,100242.00
2019-03-05T19:37:12.429Z,100253.00
2019-03-05T19:39:42.806Z,100265.00
2019-03-05T19:42:13.174Z,100249.00
2019-03-05T19:44:44.526Z,100250.00
2019-03-05T19:47:14.883Z,100255.00
2019-03-05T19:49:45.294Z,100260.00
2019-03-05T19:52:15.647Z,100269.00
2019-03-05T19:54:46.047Z,100273.00
2019-03-05T19:57:16.451Z,100287.00
2019-03-05T19:59:47.185Z,100286.00
2019-03-05T20:02:17.539Z,100281.00
2019-03-05T20:04:47.923Z,100285.00
2019-03-05T20:07:18.278Z,100287.00
2019-03-05T20:10:01.342Z,100300.00
2019-03-05T20:12:31.818Z,100293.00
2019-03-05T20:15:02.209Z,100302.00
2019-03-05T20:17:33.648Z,100304.00
2019-03-05T20:20:05.154Z,100314.00
2019-03-05T20:22:35.504Z,100317.00
2019-03-05T20:25:18.922Z,100317.00
2019-03-05T20:27:50.925Z,100323.00
2019-03-05T20:30:23.957Z,100335.00
2019-03-05T20:32:54.309Z,100334.00
2019-03-05T20:35:24.771Z,100332.00
2019-03-05T20:37:55.771Z,100333.00
2019-03-05T20:40:33.215Z,100347.00
2019-03-05T20:43:04.977Z,100339.00
2019-03-05T20:45:48.817Z,100338.00
2019-03-05T20:48:19.463Z,100342.00
2019-03-05T20:50:50.761Z,100349.00
2019-03-05T20:53:21.119Z,100359.00
2019-03-05T20:55:51.505Z,100358.00
2019-03-05T20:58:21.859Z,100363.00
2019-03-05T21:00:52.262Z,100376.00
2019-03-05T21:03:22.612Z,100374.00
2019-03-05T21:05:52.999Z,100378.00
2019-03-05T21:08:23.427Z,100373.00
2019-03-05T21:10:54.267Z,100374.00
2019-03-05T21:13:25.127Z,100384.00
2019-03-05T21:15:55.524Z,100385.00
2019-03-05T21:18:25.961Z,100383.00
2019-03-05T21:20:56.348Z,100375.00
2019-03-05T21:23:26.703Z,100382.00
2019-03-05T21:25:57.087Z,100384.00
2019-03-05T21:28:27.450Z,100390.00
2019-03-05T21:30:57.841Z,100398.00
2019-03-05T21:33:28.275Z,100391.00
2019-03-05T21:35:58.664Z,100396.00
2019-03-05T21:38:29.021Z,100393.00
2019-03-05T21:40:59.401Z,100399.00
2019-03-05T21:43:29.762Z,100408.00
2019-03-05T21:46:10.506Z,100402.00
2019-03-05T21:48:40.862Z,100413.00
2019-03-05T21:51:11.245Z,100417.00
2019-03-05T21:53:41.980Z,100422.00
2019-03-05T21:56:12.361Z,100424.00
2019-03-05T21:58:42.723Z,100425.00
2019-03-05T22:01:13.104Z,100425.00
2019-03-05T22:03:44.538Z,100424.00
2019-03-05T22:06:14.923Z,100432.00
2019-03-05T22:08:45.277Z,100443.00
2019-03-05T22:11:15.722Z,100443.00
2019-03-05T22:13:46.086Z,100438.00
2019-03-05T22:16:16.638Z,100448.00
2019-03-05T22:18:46.996Z,100456.00
2019-03-05T22:21:17.372Z,100450.00
2019-03-05T22:23:47.736Z,100454.00
2019-03-05T22:26:18.390Z,100457.00
2019-03-05T22:28:48.733Z,100465.00
2019-03-05T22:31:19.446Z,100458.00
2019-03-05T22:33:49.798Z,100463.00
2019-03-05T22:36:20.218Z,100470.00
2019-03-05T22:38:50.823Z,100469.00
2019-03-05T22:41:21.199Z,100473.00
2019-03-05T22:43:51.555Z,100469.00
2019-03-05T22:46:21.931Z,100469.00
2019-03-05T22:48:52.373Z,100472.00
2019-03-05T22:51:22.836Z,100480.00
2019-03-05T22:53:53.443Z,100487.00
2019-03-05T22:56:23.894Z,100482.00
2019-03-05T22:58:54.308Z,100485.00
2019-03-05T23:01:29.466Z,100488.00
2019-03-05T23:04:00.833Z,100493.00
2019-03-05T23:06:31.563Z,100490.00
2019-03-05T23:09:02.031Z,100500.00
2019-03-05T23:11:34.551Z,100488.00
2019-03-05T23:14:05.423Z,100496.00
2019-03-05T23:16:36.036Z,100496.00
2019-03-05T23:19:06.812Z,100488.00
2019-03-05T23:21:38.073Z,100492.00
2019-03-05T23:24:09.326Z,100495.00
2019-03-05T23:26:39.922Z,100497.00
2019-03-05T23:29:11.006Z,100507.00
2019-03-05T23:31:41.890Z,100508.00
2019-03-05T23:34:18.209Z,100506.00
2019-03-05T23:36:44.331Z,100501.00
2019-03-05T23:39:17.465Z,100502.00
2019-03-05T23:41:47.912Z,100521.00
2019-03-05T23:44:18.270Z,100520.00
2019-03-05T23:46:48.827Z,100517.00
2019-03-05T23:49:19.184Z,100526.00
2019-03-05T23:51:50.690Z,100537.00
2019-03-05T23:54:21.430Z,100531.00
2019-03-05T23:56:51.803Z,100540.00
2019-03-05T23:59:22.255Z,100535.00
